Time;durP1;ratioP1;P1;durP2;ratioP2;P2;SDS_P1;SDS_P2;PMS_P1;PMS_P2;Temp;Humidity;BMP_temperature;BMP_pressure;BME280_temperature;BME280_humidity;BME280_pressure;Samples;Min_cycle;Max_cycle;Signal;HPM_P1;HPM_P2
2023/01/09 00:00:51;;;;;;;;;;;16.40;64.00;;;;;;10379317;28;89574;-60
2023/01/09 00:05:53;;;;;;;;;;;16.40;65.00;;;;;;10378048;28;90113;-61
2023/01/09 00:10:55;;;;;;;;;;;16.30;64.10;;;;;;10360892;28;88480;-61
2023/01/09 00:15:58;;;;;;;;;;;16.30;64.00;;;;;;10360547;28;88939;-60
2023/01/09 00:21:01;;;;;;;;;;;16.30;64.10;;;;;;10377930;28;89078;-61
2023/01/09 00:26:10;;;;;;;;;;;16.30;64.10;;;;;;10360172;28;89970;-60
2023/01/09 00:31:12;;;;;;;;;;;16.30;64.20;;;;;;10360237;28;88220;-60
2023/01/09 00:36:14;;;;;;;;;;;16.30;64.20;;;;;;10377679;28;89411;-60
2023/01/09 00:41:18;;;;;;;;;;;16.30;64.10;;;;;;10378566;28;89011;-60
2023/01/09 00:46:21;;;;;;;;;;;16.30;64.20;;;;;;10377458;28;90731;-60
2023/01/09 00:51:23;;;;;;;;;;;16.30;64.30;;;;;;10377765;28;90349;-60
2023/01/09 00:56:25;;;;;;;;;;;16.30;64.30;;;;;;10376920;28;88969;-60
2023/01/09 01:01:26;;;;;;;;;;;16.30;64.20;;;;;;10378592;28;89252;-60
2023/01/09 01:11:48;;;;;;;;;;;16.30;64.20;;;;;;10377046;28;89230;-61
2023/01/09 01:16:50;;;;;;;;;;;16.20;65.20;;;;;;10376313;28;90791;-61
2023/01/09 01:21:52;;;;;;;;;;;16.20;64.30;;;;;;10359770;28;90378;-61
2023/01/09 01:26:54;;;;;;;;;;;16.20;64.30;;;;;;10359263;28;90171;-61
2023/01/09 01:31:56;;;;;;;;;;;16.20;64.20;;;;;;10376144;28;90410;-60
2023/01/09 01:36:57;;;;;;;;;;;16.20;64.20;;;;;;10376189;28;88928;-61
2023/01/09 01:41:59;;;;;;;;;;;16.20;64.10;;;;;;10376352;28;89066;-61
2023/01/09 01:47:01;;;;;;;;;;;16.20;64.20;;;;;;10377154;28;89148;-61
2023/01/09 01:52:03;;;;;;;;;;;16.20;64.20;;;;;;10376496;28;88961;-61
2023/01/09 01:57:05;;;;;;;;;;;16.20;64.30;;;;;;10374962;28;88876;-61
2023/01/09 02:07:22;;;;;;;;;;;16.20;64.20;;;;;;10330364;28;90697;-60
2023/01/09 02:12:25;;;;;;;;;;;16.10;64.10;;;;;;10333058;28;89158;-60
2023/01/09 02:17:30;;;;;;;;;;;16.10;64.20;;;;;;10316625;28;90203;-61
2023/01/09 02:22:37;;;;;;;;;;;16.10;64.20;;;;;;10333419;28;88865;-61
2023/01/09 02:27:45;;;;;;;;;;;16.10;64.10;;;;;;10315699;28;89298;-60
2023/01/09 02:33:06;;;;;;;;;;;16.10;64.20;;;;;;10315782;28;89063;-60
2023/01/09 02:38:15;;;;;;;;;;;16.10;64.10;;;;;;10334004;28;88702;-60
2023/01/09 02:43:17;;;;;;;;;;;16.10;64.10;;;;;;10316066;28;89923;-61
2023/01/09 02:48:19;;;;;;;;;;;16.10;64.10;;;;;;10332606;28;88822;-60
2023/01/09 02:53:20;;;;;;;;;;;16.10;64.20;;;;;;10332727;28;90236;-61
2023/01/09 02:58:49;;;;;;;;;;;16.00;64.10;;;;;;10314044;28;90612;-61
2023/01/09 03:03:55;;;;;;;;;;;16.10;64.10;;;;;;10326535;28;90673;-61
2023/01/09 03:09:01;;;;;;;;;;;16.00;64.10;;;;;;10331555;28;89600;-61
2023/01/09 03:14:05;;;;;;;;;;;16.00;64.10;;;;;;10317925;28;89996;-60
2023/01/09 03:19:10;;;;;;;;;;;16.00;64.10;;;;;;10336565;28;89896;-61
2023/01/09 03:24:12;;;;;;;;;;;16.00;64.10;;;;;;10338743;28;89991;-60
2023/01/09 03:29:14;;;;;;;;;;;16.00;64.20;;;;;;10339173;28;89957;-61
2023/01/09 03:34:16;;;;;;;;;;;16.00;64.10;;;;;;10339319;28;90032;-60
2023/01/09 03:39:17;;;;;;;;;;;16.00;64.10;;;;;;10338133;28;88456;-60
2023/01/09 03:44:19;;;;;;;;;;;16.00;64.00;;;;;;10319989;28;89229;-60
2023/01/09 03:49:21;;;;;;;;;;;16.00;64.00;;;;;;10338286;28;91170;-60
2023/01/09 03:54:23;;;;;;;;;;;16.00;64.00;;;;;;10337921;28;90194;-60
2023/01/09 03:59:25;;;;;;;;;;;16.00;64.00;;;;;;10337934;28;89067;-60
2023/01/09 04:04:26;;;;;;;;;;;15.90;63.90;;;;;;10319372;28;89010;-60
2023/01/09 04:09:28;;;;;;;;;;;15.90;63.90;;;;;;10336763;28;88656;-60
2023/01/09 04:14:30;;;;;;;;;;;15.90;64.00;;;;;;10337720;28;90370;-59
2023/01/09 04:19:32;;;;;;;;;;;15.90;63.90;;;;;;10336393;28;88509;-61
2023/01/09 04:24:33;;;;;;;;;;;15.90;63.90;;;;;;10335858;28;88682;-61
2023/01/09 04:29:35;;;;;;;;;;;15.90;64.00;;;;;;10318264;28;88844;-60
2023/01/09 04:34:37;;;;;;;;;;;15.90;64.00;;;;;;10336680;28;89072;-60
2023/01/09 04:39:42;;;;;;;;;;;15.90;63.90;;;;;;10336085;28;89961;-60
2023/01/09 04:44:43;;;;;;;;;;;15.90;63.90;;;;;;10336084;28;89283;-60
2023/01/09 06:07:10;;;;;;;;;;;16.50;62.20;;;;;;10251736;28;88844;-61
2023/01/09 06:12:17;;;;;;;;;;;16.70;61.60;;;;;;10251706;28;89022;-60
2023/01/09 06:17:18;;;;;;;;;;;16.80;61.40;;;;;;10250406;28;89350;-60
2023/01/09 06:22:20;;;;;;;;;;;17.00;61.20;;;;;;10252044;28;89017;-61
2023/01/09 06:27:22;;;;;;;;;;;17.10;60.80;;;;;;10251049;28;89861;-60
2023/01/09 06:32:24;;;;;;;;;;;17.10;61.30;;;;;;10252179;28;89262;-60
2023/01/09 06:37:26;;;;;;;;;;;17.10;61.60;;;;;;10250197;28;90559;-60
2023/01/09 06:42:28;;;;;;;;;;;17.00;61.50;;;;;;10252831;28;90149;-61
2023/01/09 06:47:29;;;;;;;;;;;16.90;61.50;;;;;;10257945;28;89071;-61
2023/01/09 06:52:31;;;;;;;;;;;16.90;61.60;;;;;;10258004;28;89070;-61
2023/01/09 06:57:33;;;;;;;;;;;16.80;61.80;;;;;;10255806;28;89695;-61
2023/01/09 07:02:35;;;;;;;;;;;16.70;62.00;;;;;;10264274;28;88808;-61
2023/01/09 07:07:37;;;;;;;;;;;16.60;62.20;;;;;;10339508;28;89026;-61
2023/01/09 07:12:39;;;;;;;;;;;16.60;62.40;;;;;;10339511;28;90012;-61
2023/01/09 07:17:41;;;;;;;;;;;16.50;62.60;;;;;;10320146;28;89228;-61
2023/01/09 07:22:43;;;;;;;;;;;16.50;63.00;;;;;;10320474;28;89031;-61
2023/01/09 07:27:45;;;;;;;;;;;16.40;62.90;;;;;;10320384;28;89737;-61
2023/01/09 07:32:47;;;;;;;;;;;16.40;62.90;;;;;;10338110;28;88947;-61
2023/01/09 07:37:49;;;;;;;;;;;16.30;62.90;;;;;;10337475;28;89019;-61
2023/01/09 07:42:53;;;;;;;;;;;16.30;63.00;;;;;;10337400;28;90111;-61
2023/01/09 07:47:55;;;;;;;;;;;16.20;62.90;;;;;;10337472;28;89237;-61
2023/01/09 07:52:57;;;;;;;;;;;16.20;63.00;;;;;;10336835;28;88455;-61
2023/01/09 07:57:59;;;;;;;;;;;16.20;63.10;;;;;;10302800;28;90054;-61
2023/01/09 08:03:01;;;;;;;;;;;16.20;63.10;;;;;;10338327;28;90153;-61
2023/01/09 08:08:02;;;;;;;;;;;16.10;63.20;;;;;;10337829;28;90117;-61
2023/01/09 08:13:04;;;;;;;;;;;16.10;63.40;;;;;;10337402;28;89425;-61
2023/01/09 08:18:06;;;;;;;;;;;16.10;63.40;;;;;;10318385;28;90851;-61
2023/01/09 08:23:07;;;;;;;;;;;16.00;63.50;;;;;;10337189;28;89951;-61
2023/01/09 08:28:09;;;;;;;;;;;16.00;63.60;;;;;;10336252;28;90044;-61
2023/01/09 08:33:11;;;;;;;;;;;16.00;63.70;;;;;;10336245;28;90166;-61
2023/01/09 08:38:13;;;;;;;;;;;15.90;63.70;;;;;;10335775;28;89975;-61
2023/01/09 08:48:35;;;;;;;;;;;15.90;63.70;;;;;;10334994;28;89557;-61
2023/01/09 08:53:37;;;;;;;;;;;15.90;63.90;;;;;;10335080;28;89222;-62
2023/01/09 08:58:38;;;;;;;;;;;15.90;63.90;;;;;;10335185;28;89066;-60
2023/01/09 09:03:40;;;;;;;;;;;15.90;63.90;;;;;;10335136;28;89110;-61
2023/01/09 09:08:42;;;;;;;;;;;15.80;63.80;;;;;;10333705;28;89448;-60
2023/01/09 09:13:44;;;;;;;;;;;15.80;63.80;;;;;;10334895;28;89838;-61
2023/01/09 09:18:46;;;;;;;;;;;15.80;63.80;;;;;;10317713;28;89377;-61
2023/01/09 09:23:48;;;;;;;;;;;15.80;63.80;;;;;;10316899;28;89143;-61
2023/01/09 09:28:50;;;;;;;;;;;15.80;63.90;;;;;;10334578;28;89470;-61
2023/01/09 09:33:52;;;;;;;;;;;15.80;63.80;;;;;;10335051;28;89481;-61
2023/01/09 09:38:53;;;;;;;;;;;15.80;63.90;;;;;;10334482;28;90256;-61
2023/01/09 09:49:47;;;;;;;;;;;15.80;64.00;;;;;;10334142;28;90141;-61
2023/01/09 09:54:51;;;;;;;;;;;15.80;64.10;;;;;;10334153;28;89092;-61
2023/01/09 09:59:54;;;;;;;;;;;15.80;64.10;;;;;;10332444;28;89986;-61
2023/01/09 10:05:10;;;;;;;;;;;15.70;64.00;;;;;;10334353;28;90190;-61
2023/01/09 10:10:33;;;;;;;;;;;15.70;64.20;;;;;;10333483;28;89112;-61
2023/01/09 10:15:40;;;;;;;;;;;15.70;64.00;;;;;;10333061;28;89115;-61
2023/01/09 10:20:54;;;;;;;;;;;15.70;64.10;;;;;;10338464;28;89384;-61
2023/01/09 10:25:55;;;;;;;;;;;15.70;64.10;;;;;;10340747;28;90083;-61
2023/01/09 10:31:11;;;;;;;;;;;15.70;64.20;;;;;;10339916;28;88851;-61
2023/01/09 10:36:21;;;;;;;;;;;15.70;64.20;;;;;;10322978;28;89924;-61
2023/01/09 10:41:28;;;;;;;;;;;15.70;64.30;;;;;;10321586;28;90215;-61
2023/01/09 10:46:34;;;;;;;;;;;15.70;64.30;;;;;;10340455;28;90271;-61
2023/01/09 10:51:42;;;;;;;;;;;15.70;64.40;;;;;;10337925;28;90122;-61
2023/01/09 10:56:49;;;;;;;;;;;15.70;64.30;;;;;;10339421;28;90053;-61
2023/01/09 11:01:52;;;;;;;;;;;15.70;64.30;;;;;;10322142;28;90047;-61
2023/01/09 11:06:57;;;;;;;;;;;15.70;64.30;;;;;;10338083;28;90073;-61
2023/01/09 11:11:59;;;;;;;;;;;15.70;64.40;;;;;;10321601;28;91348;-61
2023/01/09 11:17:04;;;;;;;;;;;15.60;64.40;;;;;;10338773;28;88860;-61
2023/01/09 11:22:07;;;;;;;;;;;15.60;64.30;;;;;;10334036;28;93502;-61
2023/01/09 11:27:11;;;;;;;;;;;15.60;64.40;;;;;;10316758;28;93960;-61
2023/01/09 11:32:20;;;;;;;;;;;15.60;64.30;;;;;;10333765;28;92622;-61
2023/01/09 11:37:29;;;;;;;;;;;15.60;64.40;;;;;;10315487;28;94500;-61
2023/01/09 11:47:51;;;;;;;;;;;15.60;64.30;;;;;;10334012;28;95281;-61
2023/01/09 11:53:11;;;;;;;;;;;15.60;64.50;;;;;;10333278;28;92716;-61
2023/01/09 11:58:15;;;;;;;;;;;15.60;64.40;;;;;;10333081;28;94308;-61
2023/01/09 12:03:20;;;;;;;;;;;15.60;64.40;;;;;;10314206;28;92678;-61
2023/01/09 12:08:33;;;;;;;;;;;15.60;64.40;;;;;;10333417;28;94511;-61
2023/01/09 12:13:58;;;;;;;;;;;15.60;64.40;;;;;;10331205;28;94503;-61
2023/01/09 12:18:59;;;;;;;;;;;15.60;64.70;;;;;;10332732;28;92663;-61
2023/01/09 12:24:06;;;;;;;;;;;15.60;64.70;;;;;;10332385;28;93059;-61
2023/01/09 12:29:14;;;;;;;;;;;15.60;64.90;;;;;;10332436;28;94449;-60
2023/01/09 12:34:34;;;;;;;;;;;15.60;65.00;;;;;;10327520;28;95398;-61
2023/01/09 12:39:43;;;;;;;;;;;15.60;65.80;;;;;;10330691;28;93692;-61
2023/01/09 12:44:58;;;;;;;;;;;15.60;64.90;;;;;;10312965;28;93472;-61
2023/01/09 12:50:19;;;;;;;;;;;15.60;64.80;;;;;;10330830;28;94078;-61
2023/01/09 12:55:22;;;;;;;;;;;15.60;65.00;;;;;;10312951;28;94096;-61
2023/01/09 13:00:26;;;;;;;;;;;15.60;65.00;;;;;;10329386;28;94027;-61
2023/01/09 13:05:34;;;;;;;;;;;15.60;65.00;;;;;;10329743;28;93488;-61
2023/01/09 13:10:40;;;;;;;;;;;15.60;64.90;;;;;;10314578;28;92897;-60
2023/01/09 13:15:59;;;;;;;;;;;15.60;65.00;;;;;;10331370;28;93467;-61
2023/01/09 13:21:02;;;;;;;;;;;15.60;65.00;;;;;;10331689;28;94098;-61
2023/01/09 13:26:05;;;;;;;;;;;15.60;65.00;;;;;;10327098;28;95931;-61
2023/01/09 13:31:07;;;;;;;;;;;15.60;65.00;;;;;;10296686;28;95014;-61
2023/01/09 13:36:18;;;;;;;;;;;15.60;65.00;;;;;;10329463;28;93263;-61
2023/01/09 13:46:42;;;;;;;;;;;15.60;65.10;;;;;;10328198;28;93481;-61
2023/01/09 13:51:46;;;;;;;;;;;15.50;65.00;;;;;;10327944;28;92595;-60
2023/01/09 13:57:07;;;;;;;;;;;15.60;65.00;;;;;;10311354;28;93207;-62
2023/01/09 14:02:28;;;;;;;;;;;15.50;65.00;;;;;;10328731;28;92811;-61
2023/01/09 14:07:32;;;;;;;;;;;15.50;65.10;;;;;;10328947;28;94070;-61
2023/01/09 14:12:40;;;;;;;;;;;15.50;65.10;;;;;;10328107;28;94086;-61
2023/01/09 14:17:42;;;;;;;;;;;15.50;65.00;;;;;;10326805;28;96914;-60
2023/01/09 14:22:44;;;;;;;;;;;15.50;65.10;;;;;;10328269;28;93496;-60
2023/01/09 14:28:10;;;;;;;;;;;15.50;65.10;;;;;;10328918;28;93427;-61
2023/01/09 14:33:17;;;;;;;;;;;15.50;65.10;;;;;;10328137;28;94056;-60
2023/01/09 14:38:27;;;;;;;;;;;15.50;65.10;;;;;;10327588;28;93698;-60
2023/01/09 14:43:38;;;;;;;;;;;15.50;65.10;;;;;;10327743;28;93741;-60
2023/01/09 14:48:44;;;;;;;;;;;15.50;65.10;;;;;;10326771;28;92920;-60
2023/01/09 14:53:48;;;;;;;;;;;15.50;65.10;;;;;;10311609;28;94134;-60
2023/01/09 14:59:01;;;;;;;;;;;15.50;65.10;;;;;;10327599;28;93432;-61
2023/01/09 15:04:05;;;;;;;;;;;15.40;65.10;;;;;;10310451;28;93510;-60
2023/01/09 15:09:15;;;;;;;;;;;15.40;65.10;;;;;;10331417;28;95898;-61
2023/01/09 15:14:23;;;;;;;;;;;15.40;65.10;;;;;;10300743;28;94668;-61
2023/01/09 15:19:26;;;;;;;;;;;15.40;65.20;;;;;;10333438;28;93503;-60
2023/01/09 15:24:28;;;;;;;;;;;15.40;65.20;;;;;;10333762;28;94177;-61
2023/01/09 15:29:30;;;;;;;;;;;15.40;65.20;;;;;;10333846;28;94589;-61
2023/01/09 15:34:32;;;;;;;;;;;15.40;65.20;;;;;;10333985;28;94270;-61
2023/01/09 15:39:35;;;;;;;;;;;15.40;65.20;;;;;;10332808;28;94268;-61
2023/01/09 15:44:39;;;;;;;;;;;15.40;65.20;;;;;;10334262;28;93620;-61
2023/01/09 15:49:41;;;;;;;;;;;15.40;65.10;;;;;;10332835;28;94068;-61
2023/01/09 15:54:45;;;;;;;;;;;15.40;65.10;;;;;;10332191;28;94628;-61
2023/01/09 15:59:47;;;;;;;;;;;15.40;66.10;;;;;;10310108;28;96921;-61
2023/01/09 16:04:51;;;;;;;;;;;15.40;65.10;;;;;;10313919;28;94426;-61
2023/01/09 16:09:53;;;;;;;;;;;15.40;65.10;;;;;;10332039;28;93338;-61
2023/01/09 16:14:56;;;;;;;;;;;15.40;65.10;;;;;;10330667;28;93414;-62
2023/01/09 16:20:10;;;;;;;;;;;15.40;65.10;;;;;;10332836;28;93470;-61
2023/01/09 16:25:32;;;;;;;;;;;15.40;65.00;;;;;;10332335;28;93465;-61
2023/01/09 16:30:34;;;;;;;;;;;15.30;65.00;;;;;;10329419;28;93573;-61
2023/01/09 16:35:36;;;;;;;;;;;15.30;65.00;;;;;;10332658;28;93726;-61
2023/01/09 16:40:38;;;;;;;;;;;15.30;65.00;;;;;;10332111;28;94261;-61
2023/01/09 16:45:40;;;;;;;;;;;15.30;65.00;;;;;;10330301;28;94461;-61
2023/01/09 16:50:42;;;;;;;;;;;15.50;65.00;;;;;;10328701;28;95882;-61
2023/01/09 16:55:45;;;;;;;;;;;15.80;64.70;;;;;;10330445;28;93534;-61
2023/01/09 17:00:47;;;;;;;;;;;16.10;64.30;;;;;;10312258;28;93885;-61
2023/01/09 17:05:50;;;;;;;;;;;16.40;63.80;;;;;;10329560;28;93590;-62
2023/01/09 17:10:53;;;;;;;;;;;16.60;63.30;;;;;;10330776;28;93462;-62
2023/01/09 17:15:55;;;;;;;;;;;16.70;63.10;;;;;;10329293;28;93636;-61
2023/01/09 17:20:58;;;;;;;;;;;16.80;62.90;;;;;;10330309;28;94593;-62
2023/01/09 17:31:20;;;;;;;;;;;17.00;64.10;;;;;;10328597;28;93459;-62
2023/01/09 17:36:30;;;;;;;;;;;17.10;63.50;;;;;;10329128;28;93606;-62
2023/01/09 17:41:32;;;;;;;;;;;17.20;63.30;;;;;;10325886;28;95658;-61
2023/01/09 17:46:35;;;;;;;;;;;17.20;63.40;;;;;;10328761;28;94795;-62
2023/01/09 17:51:36;;;;;;;;;;;17.30;63.10;;;;;;10328747;28;94562;-61
2023/01/09 17:56:41;;;;;;;;;;;17.30;62.90;;;;;;10328603;28;93722;-61
2023/01/09 18:01:43;;;;;;;;;;;17.40;62.90;;;;;;10327491;28;94519;-61
2023/01/09 18:06:47;;;;;;;;;;;17.40;62.80;;;;;;10327803;28;94851;-62
2023/01/09 18:11:48;;;;;;;;;;;17.40;62.70;;;;;;10310836;28;93677;-61
2023/01/09 18:16:52;;;;;;;;;;;17.50;62.70;;;;;;10328701;28;93718;-61
2023/01/09 18:21:54;;;;;;;;;;;17.50;62.70;;;;;;10327142;28;94299;-61
2023/01/09 18:26:56;;;;;;;;;;;17.40;62.60;;;;;;10327549;28;94122;-61
2023/01/09 18:31:58;;;;;;;;;;;17.50;62.70;;;;;;10325371;28;96905;-62
2023/01/09 18:37:00;;;;;;;;;;;17.60;62.60;;;;;;10326691;28;92622;-61
2023/01/09 18:42:01;;;;;;;;;;;17.60;62.50;;;;;;10334019;28;94457;-62
2023/01/09 18:47:03;;;;;;;;;;;17.70;62.40;;;;;;10334515;28;93454;-61
2023/01/09 18:52:05;;;;;;;;;;;17.60;62.40;;;;;;10334575;28;94275;-61
2023/01/09 18:57:08;;;;;;;;;;;17.60;62.50;;;;;;10333736;28;94109;-61
2023/01/09 19:02:28;;;;;;;;;;;17.60;62.60;;;;;;10334048;28;96399;-62
2023/01/09 19:07:30;;;;;;;;;;;17.70;62.50;;;;;;10334528;28;92630;-61
2023/01/09 19:12:31;;;;;;;;;;;17.80;62.40;;;;;;10332996;28;93457;-61
2023/01/09 19:17:33;;;;;;;;;;;17.80;62.10;;;;;;10333033;28;93591;-61
2023/01/09 19:22:35;;;;;;;;;;;17.80;62.10;;;;;;10330163;28;95886;-61
2023/01/09 19:27:37;;;;;;;;;;;17.70;62.20;;;;;;10332919;28;94459;-61
2023/01/09 19:32:39;;;;;;;;;;;17.70;62.40;;;;;;10333647;28;94515;-61
2023/01/09 19:37:40;;;;;;;;;;;17.80;62.40;;;;;;10333016;28;92690;-61
2023/01/09 19:42:42;;;;;;;;;;;17.90;62.00;;;;;;10315945;28;97221;-61
2023/01/09 19:47:46;;;;;;;;;;;17.90;62.00;;;;;;10333462;28;92436;-61
2023/01/09 19:52:49;;;;;;;;;;;17.90;62.00;;;;;;10312667;28;93435;-60
2023/01/09 19:57:51;;;;;;;;;;;17.80;62.10;;;;;;10333426;28;93814;-61
2023/01/09 20:02:53;;;;;;;;;;;17.70;62.30;;;;;;10314036;28;95808;-61
2023/01/09 20:07:55;;;;;;;;;;;17.60;62.50;;;;;;10333085;28;94465;-61
2023/01/09 20:12:57;;;;;;;;;;;17.60;62.80;;;;;;10328897;28;95996;-62
2023/01/09 20:18:00;;;;;;;;;;;17.60;62.80;;;;;;10332227;28;93609;-61
2023/01/09 20:23:02;;;;;;;;;;;17.70;62.60;;;;;;10331160;28;93496;-62
2023/01/09 20:28:04;;;;;;;;;;;17.90;62.40;;;;;;10331428;28;94109;-61
2023/01/09 20:33:05;;;;;;;;;;;17.90;62.20;;;;;;10330838;28;94269;-61
2023/01/09 20:38:07;;;;;;;;;;;17.90;62.50;;;;;;10330794;28;94379;-61
2023/01/09 20:43:11;;;;;;;;;;;17.80;62.50;;;;;;10330421;28;94725;-61
2023/01/09 20:48:13;;;;;;;;;;;17.70;62.60;;;;;;10312898;28;92864;-61
2023/01/09 20:53:15;;;;;;;;;;;17.60;62.70;;;;;;10311879;28;92930;-61
2023/01/09 20:58:17;;;;;;;;;;;17.50;62.90;;;;;;10313273;28;93433;-61
2023/01/09 21:03:19;;;;;;;;;;;17.50;63.10;;;;;;10326565;28;96216;-61
2023/01/09 21:08:20;;;;;;;;;;;17.30;63.20;;;;;;10330006;28;93371;-62
2023/01/09 21:13:22;;;;;;;;;;;17.30;63.60;;;;;;10330052;28;94178;-62
2023/01/09 21:18:24;;;;;;;;;;;17.20;63.70;;;;;;10328906;28;94452;-61
2023/01/09 21:23:26;;;;;;;;;;;17.10;63.90;;;;;;10312154;28;93065;-62
2023/01/09 21:28:30;;;;;;;;;;;17.00;64.10;;;;;;10329591;28;93197;-61
2023/01/09 21:33:32;;;;;;;;;;;16.90;64.30;;;;;;10329752;28;94095;-61
2023/01/09 21:38:34;;;;;;;;;;;16.90;64.50;;;;;;10330086;28;92692;-61
2023/01/09 21:48:55;;;;;;;;;;;16.70;64.70;;;;;;10327722;28;94085;-61
2023/01/09 21:53:59;;;;;;;;;;;16.70;64.90;;;;;;10325179;28;116135;-61
2023/01/09 21:59:02;;;;;;;;;;;16.60;64.90;;;;;;10328265;28;93568;-61
2023/01/09 22:04:03;;;;;;;;;;;16.60;65.10;;;;;;10328131;28;93785;-62
2023/01/09 22:09:05;;;;;;;;;;;16.60;65.20;;;;;;10309809;28;93706;-61
2023/01/09 22:14:09;;;;;;;;;;;16.60;65.20;;;;;;10325615;28;94038;-61
2023/01/09 22:19:12;;;;;;;;;;;16.50;65.30;;;;;;10326916;28;93110;-61
2023/01/09 22:24:15;;;;;;;;;;;16.50;65.20;;;;;;10327987;28;93678;-61
2023/01/09 22:29:17;;;;;;;;;;;16.40;65.10;;;;;;10309777;28;93220;-61
2023/01/09 22:34:19;;;;;;;;;;;16.40;65.10;;;;;;10326595;28;93519;-62
2023/01/09 22:39:20;;;;;;;;;;;16.40;65.00;;;;;;10327919;28;94655;-61
2023/01/09 22:44:22;;;;;;;;;;;16.30;64.80;;;;;;10324256;28;95550;-61
2023/01/09 22:49:24;;;;;;;;;;;16.30;64.90;;;;;;10327322;28;94423;-61
2023/01/09 22:54:31;;;;;;;;;;;16.20;64.90;;;;;;10327638;28;94876;-61
2023/01/09 22:59:32;;;;;;;;;;;16.20;65.00;;;;;;10326280;28;94469;-61
2023/01/09 23:04:34;;;;;;;;;;;16.20;64.90;;;;;;10324956;28;93402;-61
2023/01/09 23:09:36;;;;;;;;;;;16.20;64.90;;;;;;10326701;28;93459;-61
2023/01/09 23:14:38;;;;;;;;;;;16.10;64.90;;;;;;10326546;28;94755;-61
2023/01/09 23:19:39;;;;;;;;;;;16.10;65.00;;;;;;10326957;28;91819;-61
2023/01/09 23:24:41;;;;;;;;;;;16.10;65.00;;;;;;10327341;28;93863;-62
2023/01/09 23:29:44;;;;;;;;;;;16.00;65.00;;;;;;10314400;28;94367;-61
2023/01/09 23:34:48;;;;;;;;;;;16.00;65.00;;;;;;10330122;28;96039;-61
2023/01/09 23:39:50;;;;;;;;;;;16.00;65.00;;;;;;10314806;28;92629;-61
2023/01/09 23:44:51;;;;;;;;;;;16.00;65.00;;;;;;10333477;28;94442;-61
2023/01/09 23:49:53;;;;;;;;;;;16.00;65.00;;;;;;10331582;28;93505;-61
2023/01/09 23:54:55;;;;;;;;;;;16.00;65.00;;;;;;10331731;28;93632;-61
2023/01/09 23:59:57;;;;;;;;;;;16.00;64.90;;;;;;10314397;28;94451;-61
